sensor_id;sensor_type;location;lat;lon;timestamp;temperature;humidity
10276;DHT22;5183;51.190;6.820;2022-08-21T00:00:55;17.80;46.00
10276;DHT22;5183;51.190;6.820;2022-08-21T00:03:22;17.80;45.70
10276;DHT22;5183;51.190;6.820;2022-08-21T00:05:50;17.70;46.60
10276;DHT22;5183;51.190;6.820;2022-08-21T00:08:18;17.70;53.00
10276;DHT22;5183;51.190;6.820;2022-08-21T00:10:47;17.70;56.50
10276;DHT22;5183;51.190;6.820;2022-08-21T00:13:14;17.70;60.90
10276;DHT22;5183;51.190;6.820;2022-08-21T00:15:42;17.70;63.50
10276;DHT22;5183;51.190;6.820;2022-08-21T00:18:09;17.70;66.90
10276;DHT22;5183;51.190;6.820;2022-08-21T00:20:37;17.70;72.90
10276;DHT22;5183;51.190;6.820;2022-08-21T00:23:05;17.70;76.60
10276;DHT22;5183;51.190;6.820;2022-08-21T00:25:32;17.70;78.70
10276;DHT22;5183;51.190;6.820;2022-08-21T00:28:01;17.70;79.40
10276;DHT22;5183;51.190;6.820;2022-08-21T00:30:28;17.70;88.00
10276;DHT22;5183;51.190;6.820;2022-08-21T00:32:56;17.60;87.10
10276;DHT22;5183;51.190;6.820;2022-08-21T00:35:25;17.60;91.80
10276;DHT22;5183;51.190;6.820;2022-08-21T00:37:52;17.50;99.90
10276;DHT22;5183;51.190;6.820;2022-08-21T00:40:23;17.50;97.00
10276;DHT22;5183;51.190;6.820;2022-08-21T00:42:53;17.40;99.90
10276;DHT22;5183;51.190;6.820;2022-08-21T00:45:21;17.40;99.90
10276;DHT22;5183;51.190;6.820;2022-08-21T00:47:49;17.40;99.90
10276;DHT22;5183;51.190;6.820;2022-08-21T00:50:16;17.30;99.90
10276;DHT22;5183;51.190;6.820;2022-08-21T00:52:43;17.20;99.90
10276;DHT22;5183;51.190;6.820;2022-08-21T00:55:12;17.20;99.90
10276;DHT22;5183;51.190;6.820;2022-08-21T00:57:44;17.20;99.90
10276;DHT22;5183;51.190;6.820;2022-08-21T01:00:18;17.10;99.90
10276;DHT22;5183;51.190;6.820;2022-08-21T01:02:46;17.10;99.90
10276;DHT22;5183;51.190;6.820;2022-08-21T01:05:13;17.10;99.90
10276;DHT22;5183;51.190;6.820;2022-08-21T01:07:41;17.00;99.90
10276;DHT22;5183;51.190;6.820;2022-08-21T01:10:08;17.00;99.90
10276;DHT22;5183;51.190;6.820;2022-08-21T01:12:36;16.90;99.90
10276;DHT22;5183;51.190;6.820;2022-08-21T01:15:05;16.90;99.90
10276;DHT22;5183;51.190;6.820;2022-08-21T01:17:33;16.80;99.90
10276;DHT22;5183;51.190;6.820;2022-08-21T01:20:06;16.80;99.90
10276;DHT22;5183;51.190;6.820;2022-08-21T01:22:35;16.70;99.90
10276;DHT22;5183;51.190;6.820;2022-08-21T01:25:03;16.70;99.90
10276;DHT22;5183;51.190;6.820;2022-08-21T01:27:30;16.60;99.90
10276;DHT22;5183;51.190;6.820;2022-08-21T01:30:01;16.60;99.90
10276;DHT22;5183;51.190;6.820;2022-08-21T01:32:29;16.60;99.90
10276;DHT22;5183;51.190;6.820;2022-08-21T01:34:56;16.60;99.90
10276;DHT22;5183;51.190;6.820;2022-08-21T01:37:23;16.60;99.90
10276;DHT22;5183;51.190;6.820;2022-08-21T01:39:51;16.50;99.90
10276;DHT22;5183;51.190;6.820;2022-08-21T01:42:19;16.50;99.90
10276;DHT22;5183;51.190;6.820;2022-08-21T01:44:46;16.50;99.90
10276;DHT22;5183;51.190;6.820;2022-08-21T01:47:14;16.40;99.90
10276;DHT22;5183;51.190;6.820;2022-08-21T01:49:42;16.40;99.90
10276;DHT22;5183;51.190;6.820;2022-08-21T01:52:09;16.40;99.90
10276;DHT22;5183;51.190;6.820;2022-08-21T01:54:37;16.30;99.90
10276;DHT22;5183;51.190;6.820;2022-08-21T01:57:06;16.30;99.90
10276;DHT22;5183;51.190;6.820;2022-08-21T01:59:33;16.30;99.90
10276;DHT22;5183;51.190;6.820;2022-08-21T02:02:00;16.30;99.90
10276;DHT22;5183;51.190;6.820;2022-08-21T02:04:27;16.30;99.90
10276;DHT22;5183;51.190;6.820;2022-08-21T02:06:54;16.20;99.90
10276;DHT22;5183;51.190;6.820;2022-08-21T02:09:21;16.20;99.90
10276;DHT22;5183;51.190;6.820;2022-08-21T02:11:48;16.20;99.90
10276;DHT22;5183;51.190;6.820;2022-08-21T02:14:17;16.10;99.90
10276;DHT22;5183;51.190;6.820;2022-08-21T02:16:45;16.10;99.90
10276;DHT22;5183;51.190;6.820;2022-08-21T02:19:15;16.10;99.90
10276;DHT22;5183;51.190;6.820;2022-08-21T02:21:42;16.00;99.90
10276;DHT22;5183;51.190;6.820;2022-08-21T02:24:10;16.00;99.90
10276;DHT22;5183;51.190;6.820;2022-08-21T02:26:37;16.00;99.90
10276;DHT22;5183;51.190;6.820;2022-08-21T02:29:04;15.90;99.90
10276;DHT22;5183;51.190;6.820;2022-08-21T02:31:32;15.90;99.90
10276;DHT22;5183;51.190;6.820;2022-08-21T02:34:00;15.90;99.90
10276;DHT22;5183;51.190;6.820;2022-08-21T02:36:27;15.90;99.90
10276;DHT22;5183;51.190;6.820;2022-08-21T02:38:54;15.90;99.90
10276;DHT22;5183;51.190;6.820;2022-08-21T02:41:22;15.80;99.90
10276;DHT22;5183;51.190;6.820;2022-08-21T02:43:49;15.80;99.90
10276;DHT22;5183;51.190;6.820;2022-08-21T02:46:19;15.70;99.90
10276;DHT22;5183;51.190;6.820;2022-08-21T02:48:47;15.70;99.90
10276;DHT22;5183;51.190;6.820;2022-08-21T02:51:16;15.70;99.90
10276;DHT22;5183;51.190;6.820;2022-08-21T02:53:45;15.70;99.90
10276;DHT22;5183;51.190;6.820;2022-08-21T02:56:15;15.70;99.90
10276;DHT22;5183;51.190;6.820;2022-08-21T02:58:46;15.60;99.90
10276;DHT22;5183;51.190;6.820;2022-08-21T03:01:13;15.60;99.90
10276;DHT22;5183;51.190;6.820;2022-08-21T03:03:42;15.60;99.90
10276;DHT22;5183;51.190;6.820;2022-08-21T03:06:13;15.60;99.90
10276;DHT22;5183;51.190;6.820;2022-08-21T03:08:40;15.60;99.90
10276;DHT22;5183;51.190;6.820;2022-08-21T03:11:07;15.50;99.90
10276;DHT22;5183;51.190;6.820;2022-08-21T03:13:34;15.50;99.90
10276;DHT22;5183;51.190;6.820;2022-08-21T03:16:02;15.50;99.90
10276;DHT22;5183;51.190;6.820;2022-08-21T03:18:29;15.40;99.90
10276;DHT22;5183;51.190;6.820;2022-08-21T03:20:56;15.40;99.90
10276;DHT22;5183;51.190;6.820;2022-08-21T03:23:24;15.30;99.90
10276;DHT22;5183;51.190;6.820;2022-08-21T03:25:51;15.30;99.90
10276;DHT22;5183;51.190;6.820;2022-08-21T03:28:20;15.30;99.90
10276;DHT22;5183;51.190;6.820;2022-08-21T03:30:49;15.20;99.90
10276;DHT22;5183;51.190;6.820;2022-08-21T03:33:17;15.30;99.90
10276;DHT22;5183;51.190;6.820;2022-08-21T03:35:47;15.20;99.90
10276;DHT22;5183;51.190;6.820;2022-08-21T03:38:14;15.30;99.90
10276;DHT22;5183;51.190;6.820;2022-08-21T03:40:43;15.20;99.90
10276;DHT22;5183;51.190;6.820;2022-08-21T03:43:10;15.20;99.90
10276;DHT22;5183;51.190;6.820;2022-08-21T03:45:38;15.20;99.90
10276;DHT22;5183;51.190;6.820;2022-08-21T03:48:06;15.20;99.90
10276;DHT22;5183;51.190;6.820;2022-08-21T03:50:37;15.20;99.90
10276;DHT22;5183;51.190;6.820;2022-08-21T03:53:04;15.10;99.90
10276;DHT22;5183;51.190;6.820;2022-08-21T03:55:31;15.20;99.90
10276;DHT22;5183;51.190;6.820;2022-08-21T03:57:59;15.10;99.90
10276;DHT22;5183;51.190;6.820;2022-08-21T04:00:27;15.10;99.90
10276;DHT22;5183;51.190;6.820;2022-08-21T04:02:54;15.10;99.90
10276;DHT22;5183;51.190;6.820;2022-08-21T04:05:21;15.00;99.90
10276;DHT22;5183;51.190;6.820;2022-08-21T04:07:55;15.00;99.90
10276;DHT22;5183;51.190;6.820;2022-08-21T04:10:22;14.90;99.90
10276;DHT22;5183;51.190;6.820;2022-08-21T04:12:50;14.90;99.90
10276;DHT22;5183;51.190;6.820;2022-08-21T04:15:19;14.90;99.90
10276;DHT22;5183;51.190;6.820;2022-08-21T04:17:47;14.90;99.90
10276;DHT22;5183;51.190;6.820;2022-08-21T04:20:14;14.80;99.90
10276;DHT22;5183;51.190;6.820;2022-08-21T04:22:41;14.80;99.90
10276;DHT22;5183;51.190;6.820;2022-08-21T04:25:08;14.90;99.90
10276;DHT22;5183;51.190;6.820;2022-08-21T04:27:35;14.80;99.90
10276;DHT22;5183;51.190;6.820;2022-08-21T04:30:02;14.80;99.90
10276;DHT22;5183;51.190;6.820;2022-08-21T04:32:30;14.70;99.90
10276;DHT22;5183;51.190;6.820;2022-08-21T04:34:58;14.70;99.90
10276;DHT22;5183;51.190;6.820;2022-08-21T04:37:26;14.70;99.90
10276;DHT22;5183;51.190;6.820;2022-08-21T04:39:54;14.70;99.90
10276;DHT22;5183;51.190;6.820;2022-08-21T04:42:23;14.70;99.90
10276;DHT22;5183;51.190;6.820;2022-08-21T04:44:50;14.70;99.90
10276;DHT22;5183;51.190;6.820;2022-08-21T04:47:17;14.70;99.90
10276;DHT22;5183;51.190;6.820;2022-08-21T04:49:46;14.70;99.90
10276;DHT22;5183;51.190;6.820;2022-08-21T04:52:14;14.80;99.90
10276;DHT22;5183;51.190;6.820;2022-08-21T04:54:43;14.80;99.90
10276;DHT22;5183;51.190;6.820;2022-08-21T04:57:11;14.80;99.90
10276;DHT22;5183;51.190;6.820;2022-08-21T04:59:42;14.80;99.90
10276;DHT22;5183;51.190;6.820;2022-08-21T05:02:11;14.80;99.90
10276;DHT22;5183;51.190;6.820;2022-08-21T05:04:42;14.80;99.90
10276;DHT22;5183;51.190;6.820;2022-08-21T05:07:15;14.90;99.90
10276;DHT22;5183;51.190;6.820;2022-08-21T05:09:43;15.00;99.90
10276;DHT22;5183;51.190;6.820;2022-08-21T05:12:10;15.00;99.90
10276;DHT22;5183;51.190;6.820;2022-08-21T05:14:37;15.00;99.90
10276;DHT22;5183;51.190;6.820;2022-08-21T05:17:04;15.00;99.90
10276;DHT22;5183;51.190;6.820;2022-08-21T05:19:31;15.00;99.90
10276;DHT22;5183;51.190;6.820;2022-08-21T05:21:58;15.10;99.90
10276;DHT22;5183;51.190;6.820;2022-08-21T05:24:27;15.10;99.90
10276;DHT22;5183;51.190;6.820;2022-08-21T05:26:54;15.10;99.90
10276;DHT22;5183;51.190;6.820;2022-08-21T05:29:21;15.10;99.90
10276;DHT22;5183;51.190;6.820;2022-08-21T05:31:48;15.20;99.90
10276;DHT22;5183;51.190;6.820;2022-08-21T05:34:18;15.30;99.90
10276;DHT22;5183;51.190;6.820;2022-08-21T05:36:45;15.30;99.90
10276;DHT22;5183;51.190;6.820;2022-08-21T05:39:12;15.30;99.90
10276;DHT22;5183;51.190;6.820;2022-08-21T05:41:41;15.30;99.90
10276;DHT22;5183;51.190;6.820;2022-08-21T05:44:07;15.30;99.90
10276;DHT22;5183;51.190;6.820;2022-08-21T05:46:34;15.30;99.90
10276;DHT22;5183;51.190;6.820;2022-08-21T05:49:02;15.30;99.90
10276;DHT22;5183;51.190;6.820;2022-08-21T05:51:29;15.30;99.90
10276;DHT22;5183;51.190;6.820;2022-08-21T05:53:55;15.40;99.90
10276;DHT22;5183;51.190;6.820;2022-08-21T05:56:22;15.40;99.90
10276;DHT22;5183;51.190;6.820;2022-08-21T05:58:50;15.40;99.90
10276;DHT22;5183;51.190;6.820;2022-08-21T06:01:17;15.50;99.90
10276;DHT22;5183;51.190;6.820;2022-08-21T06:03:44;15.50;99.90
10276;DHT22;5183;51.190;6.820;2022-08-21T06:06:11;15.50;99.90
10276;DHT22;5183;51.190;6.820;2022-08-21T06:08:38;15.60;99.90
10276;DHT22;5183;51.190;6.820;2022-08-21T06:11:06;15.60;99.90
10276;DHT22;5183;51.190;6.820;2022-08-21T06:13:33;15.60;99.90
10276;DHT22;5183;51.190;6.820;2022-08-21T06:16:03;15.70;99.90
10276;DHT22;5183;51.190;6.820;2022-08-21T06:18:31;15.70;99.90
10276;DHT22;5183;51.190;6.820;2022-08-21T06:20:58;15.70;99.90
10276;DHT22;5183;51.190;6.820;2022-08-21T06:23:25;15.80;99.90
10276;DHT22;5183;51.190;6.820;2022-08-21T06:25:52;15.80;99.90
10276;DHT22;5183;51.190;6.820;2022-08-21T06:28:19;15.80;99.90
10276;DHT22;5183;51.190;6.820;2022-08-21T06:30:46;15.90;99.90
10276;DHT22;5183;51.190;6.820;2022-08-21T06:33:14;15.90;99.90
10276;DHT22;5183;51.190;6.820;2022-08-21T06:35:41;15.90;99.90
10276;DHT22;5183;51.190;6.820;2022-08-21T06:38:09;16.10;99.90
10276;DHT22;5183;51.190;6.820;2022-08-21T06:40:36;16.10;99.90
10276;DHT22;5183;51.190;6.820;2022-08-21T06:43:08;16.20;99.90
10276;DHT22;5183;51.190;6.820;2022-08-21T06:45:35;16.20;98.80
10276;DHT22;5183;51.190;6.820;2022-08-21T06:48:03;16.20;97.70
10276;DHT22;5183;51.190;6.820;2022-08-21T06:50:32;16.20;96.20
10276;DHT22;5183;51.190;6.820;2022-08-21T06:53:01;16.30;92.40
10276;DHT22;5183;51.190;6.820;2022-08-21T06:55:28;16.40;85.00
10276;DHT22;5183;51.190;6.820;2022-08-21T06:57:56;16.40;60.80
10276;DHT22;5183;51.190;6.820;2022-08-21T07:00:23;16.60;45.40
10276;DHT22;5183;51.190;6.820;2022-08-21T07:02:50;16.70;39.70
10276;DHT22;5183;51.190;6.820;2022-08-21T07:05:17;16.80;33.50
10276;DHT22;5183;51.190;6.820;2022-08-21T07:07:47;16.80;33.00
10276;DHT22;5183;51.190;6.820;2022-08-21T07:10:14;16.90;40.00
10276;DHT22;5183;51.190;6.820;2022-08-21T07:12:41;17.00;26.40
10276;DHT22;5183;51.190;6.820;2022-08-21T07:15:09;17.20;15.20
10276;DHT22;5183;51.190;6.820;2022-08-21T07:17:37;17.30;8.30
10276;DHT22;5183;51.190;6.820;2022-08-21T07:20:05;17.30;4.20
10276;DHT22;5183;51.190;6.820;2022-08-21T07:22:32;17.20;6.30
10276;DHT22;5183;51.190;6.820;2022-08-21T07:25:01;17.30;3.50
10276;DHT22;5183;51.190;6.820;2022-08-21T07:27:28;17.40;1.00
10276;DHT22;5183;51.190;6.820;2022-08-21T07:29:56;17.40;1.00
10276;DHT22;5183;51.190;6.820;2022-08-21T07:32:23;17.50;1.00
10276;DHT22;5183;51.190;6.820;2022-08-21T07:34:50;17.50;1.00
10276;DHT22;5183;51.190;6.820;2022-08-21T07:37:17;17.50;1.00
10276;DHT22;5183;51.190;6.820;2022-08-21T07:39:44;17.50;1.00
10276;DHT22;5183;51.190;6.820;2022-08-21T07:42:15;17.70;1.00
10276;DHT22;5183;51.190;6.820;2022-08-21T07:44:42;17.70;1.00
10276;DHT22;5183;51.190;6.820;2022-08-21T07:47:09;17.80;1.00
10276;DHT22;5183;51.190;6.820;2022-08-21T07:49:36;17.70;1.00
10276;DHT22;5183;51.190;6.820;2022-08-21T07:52:03;18.00;1.00
10276;DHT22;5183;51.190;6.820;2022-08-21T07:54:30;18.00;1.00
10276;DHT22;5183;51.190;6.820;2022-08-21T07:56:57;18.10;1.00
10276;DHT22;5183;51.190;6.820;2022-08-21T07:59:26;18.10;1.00
10276;DHT22;5183;51.190;6.820;2022-08-21T08:01:52;18.10;1.00
10276;DHT22;5183;51.190;6.820;2022-08-21T08:04:19;18.30;1.00
10276;DHT22;5183;51.190;6.820;2022-08-21T08:06:46;18.40;1.00
10276;DHT22;5183;51.190;6.820;2022-08-21T08:09:13;18.40;1.00
10276;DHT22;5183;51.190;6.820;2022-08-21T08:11:42;18.50;1.00
10276;DHT22;5183;51.190;6.820;2022-08-21T08:14:10;18.70;1.00
10276;DHT22;5183;51.190;6.820;2022-08-21T08:16:38;18.70;1.00
10276;DHT22;5183;51.190;6.820;2022-08-21T08:19:05;18.70;1.00
10276;DHT22;5183;51.190;6.820;2022-08-21T08:21:32;18.80;1.00
10276;DHT22;5183;51.190;6.820;2022-08-21T08:24:00;18.80;1.00
10276;DHT22;5183;51.190;6.820;2022-08-21T08:26:26;18.90;1.00
10276;DHT22;5183;51.190;6.820;2022-08-21T08:28:53;18.90;1.00
10276;DHT22;5183;51.190;6.820;2022-08-21T08:31:20;18.90;1.00
10276;DHT22;5183;51.190;6.820;2022-08-21T08:33:49;19.00;1.00
10276;DHT22;5183;51.190;6.820;2022-08-21T08:36:16;19.10;1.00
10276;DHT22;5183;51.190;6.820;2022-08-21T08:38:45;19.20;1.00
10276;DHT22;5183;51.190;6.820;2022-08-21T08:41:14;19.30;1.00
10276;DHT22;5183;51.190;6.820;2022-08-21T08:43:47;19.40;1.00
10276;DHT22;5183;51.190;6.820;2022-08-21T08:46:17;19.60;1.00
10276;DHT22;5183;51.190;6.820;2022-08-21T08:48:50;19.70;1.00
10276;DHT22;5183;51.190;6.820;2022-08-21T08:51:22;19.90;1.00
10276;DHT22;5183;51.190;6.820;2022-08-21T08:53:52;19.90;1.00
10276;DHT22;5183;51.190;6.820;2022-08-21T08:56:28;20.10;1.00
10276;DHT22;5183;51.190;6.820;2022-08-21T08:58:58;20.10;1.00
10276;DHT22;5183;51.190;6.820;2022-08-21T09:01:27;20.20;1.00
10276;DHT22;5183;51.190;6.820;2022-08-21T09:03:56;20.20;1.00
10276;DHT22;5183;51.190;6.820;2022-08-21T09:06:42;20.20;1.00
10276;DHT22;5183;51.190;6.820;2022-08-21T09:09:21;20.20;1.00
10276;DHT22;5183;51.190;6.820;2022-08-21T09:11:55;20.10;1.00
10276;DHT22;5183;51.190;6.820;2022-08-21T09:14:29;20.10;1.00
10276;DHT22;5183;51.190;6.820;2022-08-21T09:17:04;20.10;1.00
10276;DHT22;5183;51.190;6.820;2022-08-21T09:19:46;20.20;1.00
10276;DHT22;5183;51.190;6.820;2022-08-21T09:22:25;20.30;1.00
10276;DHT22;5183;51.190;6.820;2022-08-21T09:25:01;20.30;1.00
10276;DHT22;5183;51.190;6.820;2022-08-21T09:27:29;20.40;1.00
10276;DHT22;5183;51.190;6.820;2022-08-21T09:29:57;20.50;1.00
10276;DHT22;5183;51.190;6.820;2022-08-21T09:32:25;20.60;1.00
10276;DHT22;5183;51.190;6.820;2022-08-21T09:35:03;20.70;1.00
10276;DHT22;5183;51.190;6.820;2022-08-21T09:37:33;20.70;1.00
10276;DHT22;5183;51.190;6.820;2022-08-21T09:40:03;20.80;1.00
10276;DHT22;5183;51.190;6.820;2022-08-21T09:42:41;20.90;1.00
10276;DHT22;5183;51.190;6.820;2022-08-21T09:45:12;20.90;1.00
10276;DHT22;5183;51.190;6.820;2022-08-21T09:47:40;20.90;1.00
10276;DHT22;5183;51.190;6.820;2022-08-21T09:50:12;21.00;1.00
10276;DHT22;5183;51.190;6.820;2022-08-21T09:52:45;21.20;1.00
10276;DHT22;5183;51.190;6.820;2022-08-21T09:55:29;21.40;1.00
10276;DHT22;5183;51.190;6.820;2022-08-21T09:58:15;21.50;1.00
10276;DHT22;5183;51.190;6.820;2022-08-21T10:00:42;21.60;1.00
10276;DHT22;5183;51.190;6.820;2022-08-21T10:03:15;21.70;1.00
10276;DHT22;5183;51.190;6.820;2022-08-21T10:05:58;21.80;1.00
10276;DHT22;5183;51.190;6.820;2022-08-21T10:08:26;21.90;1.00
10276;DHT22;5183;51.190;6.820;2022-08-21T10:11:01;22.00;1.00
10276;DHT22;5183;51.190;6.820;2022-08-21T10:13:39;22.10;1.00
10276;DHT22;5183;51.190;6.820;2022-08-21T10:16:19;22.30;1.00
10276;DHT22;5183;51.190;6.820;2022-08-21T10:19:01;22.30;1.00
10276;DHT22;5183;51.190;6.820;2022-08-21T10:21:36;22.30;1.00
10276;DHT22;5183;51.190;6.820;2022-08-21T10:24:11;22.40;1.00
10276;DHT22;5183;51.190;6.820;2022-08-21T10:26:48;22.50;1.00
10276;DHT22;5183;51.190;6.820;2022-08-21T10:29:31;22.60;1.00
10276;DHT22;5183;51.190;6.820;2022-08-21T10:32:12;22.70;1.00
10276;DHT22;5183;51.190;6.820;2022-08-21T10:34:51;22.80;1.00
10276;DHT22;5183;51.190;6.820;2022-08-21T10:37:27;22.90;1.00
10276;DHT22;5183;51.190;6.820;2022-08-21T10:40:07;23.10;1.00
10276;DHT22;5183;51.190;6.820;2022-08-21T10:42:39;23.20;1.00
10276;DHT22;5183;51.190;6.820;2022-08-21T10:45:14;23.10;1.00
10276;DHT22;5183;51.190;6.820;2022-08-21T10:47:46;23.20;1.00
10276;DHT22;5183;51.190;6.820;2022-08-21T10:50:19;23.20;1.00
10276;DHT22;5183;51.190;6.820;2022-08-21T10:53:00;23.20;1.00
10276;DHT22;5183;51.190;6.820;2022-08-21T10:55:35;23.40;1.00
10276;DHT22;5183;51.190;6.820;2022-08-21T10:58:08;23.70;1.00
10276;DHT22;5183;51.190;6.820;2022-08-21T11:00:40;23.80;1.00
10276;DHT22;5183;51.190;6.820;2022-08-21T11:03:13;23.80;1.00
10276;DHT22;5183;51.190;6.820;2022-08-21T11:05:46;24.00;1.00
10276;DHT22;5183;51.190;6.820;2022-08-21T11:08:21;24.10;1.00
10276;DHT22;5183;51.190;6.820;2022-08-21T11:10:52;24.20;1.00
10276;DHT22;5183;51.190;6.820;2022-08-21T11:13:26;24.40;1.00
10276;DHT22;5183;51.190;6.820;2022-08-21T11:16:02;24.20;1.00
10276;DHT22;5183;51.190;6.820;2022-08-21T11:18:35;24.10;1.00
10276;DHT22;5183;51.190;6.820;2022-08-21T11:21:23;23.90;1.00
10276;DHT22;5183;51.190;6.820;2022-08-21T11:24:00;24.00;1.00
10276;DHT22;5183;51.190;6.820;2022-08-21T11:26:34;24.10;1.00
10276;DHT22;5183;51.190;6.820;2022-08-21T11:29:08;24.10;1.00
10276;DHT22;5183;51.190;6.820;2022-08-21T11:31:47;24.00;1.00
10276;DHT22;5183;51.190;6.820;2022-08-21T11:34:26;24.00;1.00
10276;DHT22;5183;51.190;6.820;2022-08-21T11:37:08;24.10;1.00
10276;DHT22;5183;51.190;6.820;2022-08-21T11:39:47;24.20;1.00
10276;DHT22;5183;51.190;6.820;2022-08-21T11:42:22;24.20;1.00
10276;DHT22;5183;51.190;6.820;2022-08-21T11:44:59;24.40;1.00
10276;DHT22;5183;51.190;6.820;2022-08-21T11:47:36;24.50;1.00
10276;DHT22;5183;51.190;6.820;2022-08-21T11:50:14;24.60;1.00
10276;DHT22;5183;51.190;6.820;2022-08-21T11:52:45;24.50;1.00
10276;DHT22;5183;51.190;6.820;2022-08-21T11:55:18;24.60;1.00
10276;DHT22;5183;51.190;6.820;2022-08-21T11:57:50;24.50;1.00
10276;DHT22;5183;51.190;6.820;2022-08-21T12:00:22;24.70;1.00
10276;DHT22;5183;51.190;6.820;2022-08-21T12:02:55;24.70;1.00
10276;DHT22;5183;51.190;6.820;2022-08-21T12:05:27;24.80;1.00
10276;DHT22;5183;51.190;6.820;2022-08-21T12:08:04;24.90;1.00
10276;DHT22;5183;51.190;6.820;2022-08-21T12:10:38;25.00;1.00
10276;DHT22;5183;51.190;6.820;2022-08-21T12:13:07;25.20;1.00
10276;DHT22;5183;51.190;6.820;2022-08-21T12:15:36;25.30;1.00
10276;DHT22;5183;51.190;6.820;2022-08-21T12:18:06;25.50;1.00
10276;DHT22;5183;51.190;6.820;2022-08-21T12:20:38;25.70;1.00
10276;DHT22;5183;51.190;6.820;2022-08-21T12:23:17;25.90;1.00
10276;DHT22;5183;51.190;6.820;2022-08-21T12:26:00;26.00;1.00
10276;DHT22;5183;51.190;6.820;2022-08-21T12:28:29;26.10;1.00
10276;DHT22;5183;51.190;6.820;2022-08-21T12:30:57;26.30;1.00
10276;DHT22;5183;51.190;6.820;2022-08-21T12:33:27;26.50;1.00
10276;DHT22;5183;51.190;6.820;2022-08-21T12:36:03;26.50;1.00
10276;DHT22;5183;51.190;6.820;2022-08-21T12:38:35;26.40;1.00
10276;DHT22;5183;51.190;6.820;2022-08-21T12:41:16;26.70;1.00
10276;DHT22;5183;51.190;6.820;2022-08-21T12:43:46;26.80;1.00
10276;DHT22;5183;51.190;6.820;2022-08-21T12:46:15;26.80;1.00
10276;DHT22;5183;51.190;6.820;2022-08-21T12:48:49;27.00;1.00
10276;DHT22;5183;51.190;6.820;2022-08-21T12:51:22;27.10;1.00
10276;DHT22;5183;51.190;6.820;2022-08-21T12:53:52;27.20;1.00
10276;DHT22;5183;51.190;6.820;2022-08-21T12:56:23;27.20;1.00
10276;DHT22;5183;51.190;6.820;2022-08-21T12:58:52;27.00;1.00
10276;DHT22;5183;51.190;6.820;2022-08-21T13:01:23;26.90;1.00
10276;DHT22;5183;51.190;6.820;2022-08-21T13:03:53;26.90;1.00
10276;DHT22;5183;51.190;6.820;2022-08-21T13:06:22;27.20;1.00
10276;DHT22;5183;51.190;6.820;2022-08-21T13:08:55;27.20;1.00
10276;DHT22;5183;51.190;6.820;2022-08-21T13:11:25;27.10;1.00
10276;DHT22;5183;51.190;6.820;2022-08-21T13:13:53;27.20;1.00
10276;DHT22;5183;51.190;6.820;2022-08-21T13:16:24;27.40;1.00
10276;DHT22;5183;51.190;6.820;2022-08-21T13:18:55;27.40;1.00
10276;DHT22;5183;51.190;6.820;2022-08-21T13:21:28;27.60;1.00
10276;DHT22;5183;51.190;6.820;2022-08-21T13:24:08;27.50;1.00
10276;DHT22;5183;51.190;6.820;2022-08-21T13:26:38;27.40;1.00
10276;DHT22;5183;51.190;6.820;2022-08-21T13:29:07;27.50;1.00
10276;DHT22;5183;51.190;6.820;2022-08-21T13:31:36;27.50;1.00
10276;DHT22;5183;51.190;6.820;2022-08-21T13:34:05;27.20;1.00
10276;DHT22;5183;51.190;6.820;2022-08-21T13:36:39;27.10;1.00
10276;DHT22;5183;51.190;6.820;2022-08-21T13:39:09;26.80;1.00
10276;DHT22;5183;51.190;6.820;2022-08-21T13:41:41;26.80;1.00
10276;DHT22;5183;51.190;6.820;2022-08-21T13:44:15;26.80;1.00
10276;DHT22;5183;51.190;6.820;2022-08-21T13:46:43;26.90;1.00
10276;DHT22;5183;51.190;6.820;2022-08-21T13:49:13;27.30;1.00
10276;DHT22;5183;51.190;6.820;2022-08-21T13:51:41;27.70;1.00
10276;DHT22;5183;51.190;6.820;2022-08-21T13:54:20;28.10;1.00
10276;DHT22;5183;51.190;6.820;2022-08-21T13:56:50;28.30;1.00
10276;DHT22;5183;51.190;6.820;2022-08-21T13:59:26;28.40;1.00
10276;DHT22;5183;51.190;6.820;2022-08-21T14:01:55;28.60;1.00
10276;DHT22;5183;51.190;6.820;2022-08-21T14:04:29;28.50;1.00
10276;DHT22;5183;51.190;6.820;2022-08-21T14:06:58;28.60;1.00
10276;DHT22;5183;51.190;6.820;2022-08-21T14:09:29;29.00;1.00
10276;DHT22;5183;51.190;6.820;2022-08-21T14:12:00;29.00;1.00
10276;DHT22;5183;51.190;6.820;2022-08-21T14:14:29;29.20;1.00
10276;DHT22;5183;51.190;6.820;2022-08-21T14:16:59;29.30;1.00
10276;DHT22;5183;51.190;6.820;2022-08-21T14:19:28;29.20;1.00
10276;DHT22;5183;51.190;6.820;2022-08-21T14:22:22;29.40;1.00
10276;DHT22;5183;51.190;6.820;2022-08-21T14:24:50;29.20;1.00
10276;DHT22;5183;51.190;6.820;2022-08-21T14:27:29;29.30;1.00
10276;DHT22;5183;51.190;6.820;2022-08-21T14:29:59;29.20;1.00
10276;DHT22;5183;51.190;6.820;2022-08-21T14:32:29;29.10;1.00
10276;DHT22;5183;51.190;6.820;2022-08-21T14:34:57;29.30;1.00
10276;DHT22;5183;51.190;6.820;2022-08-21T14:37:24;29.40;1.00
10276;DHT22;5183;51.190;6.820;2022-08-21T14:39:52;29.40;1.00
10276;DHT22;5183;51.190;6.820;2022-08-21T14:42:19;29.40;1.00
10276;DHT22;5183;51.190;6.820;2022-08-21T14:44:47;29.50;1.00
10276;DHT22;5183;51.190;6.820;2022-08-21T14:47:14;29.80;1.00
10276;DHT22;5183;51.190;6.820;2022-08-21T14:49:41;29.80;1.00
10276;DHT22;5183;51.190;6.820;2022-08-21T14:52:08;29.90;1.00
10276;DHT22;5183;51.190;6.820;2022-08-21T14:54:35;29.90;1.00
10276;DHT22;5183;51.190;6.820;2022-08-21T14:57:06;29.90;1.00
10276;DHT22;5183;51.190;6.820;2022-08-21T14:59:35;29.80;1.00
10276;DHT22;5183;51.190;6.820;2022-08-21T15:02:05;30.00;1.00
10276;DHT22;5183;51.190;6.820;2022-08-21T15:04:32;30.10;1.00
10276;DHT22;5183;51.190;6.820;2022-08-21T15:07:00;29.90;1.00
10276;DHT22;5183;51.190;6.820;2022-08-21T15:09:27;29.90;1.00
10276;DHT22;5183;51.190;6.820;2022-08-21T15:11:57;29.80;1.00
10276;DHT22;5183;51.190;6.820;2022-08-21T15:14:26;29.90;1.00
10276;DHT22;5183;51.190;6.820;2022-08-21T15:16:54;29.90;1.00
10276;DHT22;5183;51.190;6.820;2022-08-21T15:19:22;30.10;1.00
10276;DHT22;5183;51.190;6.820;2022-08-21T15:21:49;30.30;1.00
10276;DHT22;5183;51.190;6.820;2022-08-21T15:24:16;30.40;1.00
10276;DHT22;5183;51.190;6.820;2022-08-21T15:26:44;30.50;1.00
10276;DHT22;5183;51.190;6.820;2022-08-21T15:29:11;30.60;1.00
10276;DHT22;5183;51.190;6.820;2022-08-21T15:31:50;30.60;1.00
10276;DHT22;5183;51.190;6.820;2022-08-21T15:34:17;30.70;1.00
10276;DHT22;5183;51.190;6.820;2022-08-21T15:36:46;30.70;1.00
10276;DHT22;5183;51.190;6.820;2022-08-21T15:39:12;30.50;1.00
10276;DHT22;5183;51.190;6.820;2022-08-21T15:41:39;30.10;1.00
10276;DHT22;5183;51.190;6.820;2022-08-21T15:44:08;30.10;1.00
10276;DHT22;5183;51.190;6.820;2022-08-21T15:46:36;30.30;1.00
10276;DHT22;5183;51.190;6.820;2022-08-21T15:49:04;30.20;1.00
10276;DHT22;5183;51.190;6.820;2022-08-21T15:51:31;29.60;1.00
10276;DHT22;5183;51.190;6.820;2022-08-21T15:54:00;29.30;1.00
10276;DHT22;5183;51.190;6.820;2022-08-21T15:56:38;28.90;1.00
10276;DHT22;5183;51.190;6.820;2022-08-21T15:59:09;29.20;1.00
10276;DHT22;5183;51.190;6.820;2022-08-21T16:01:38;29.50;1.00
10276;DHT22;5183;51.190;6.820;2022-08-21T16:04:06;29.60;1.00
10276;DHT22;5183;51.190;6.820;2022-08-21T16:06:33;29.50;1.00
10276;DHT22;5183;51.190;6.820;2022-08-21T16:09:02;29.50;1.00
10276;DHT22;5183;51.190;6.820;2022-08-21T16:11:29;29.30;1.00